Disclaimer

Please do not use the information listed here in-flight or in-navigation, as they are not provided to us by the airports but are provided by volunteers, so they might be outdated.

Search


Regions


Airport information page

Radio informations:
LUXEUIL TWR - 122.1 MHz
LUXEUIL ARR - 397.025 MHz
LUXEUIL APP - 129.925 MHz

Airport informations:
Latitude: 47° 46' 59.27" N
Longitude: 006° 21' 50.60" E
Elevation: 913 feet - 278 meters
Operating hours: Remarks
Operating agency: Military
Timezone: UTC+1(+2DT) - Last Sunday in March to last Sunday in October
Fuel: Jet A1+, Jet A1 with icing inhibitor.

100/130 MIL Spec, low lead, aviation gasoline (BLUE)

Runway information:
04/22 - 7596 x 118 feet< - >2315 x 36 meters
11/29 - 7982 x 148 feet< - >2433 x 45 meters

Recent METARs:
LFSX 170730Z AUTO VRB01KT 6000 NSC 00/M01 Q1023
LFSX 170800Z AUTO VRB01KT 4700 BR NSC 01/M00 Q1023
LFSX 170830Z AUTO VRB02KT 6000 NSC 02/00 Q1023

Airport on the map: